sensor_id;sensor_type;location;lat;lon;timestamp;P1;durP1;ratioP1;P2;durP2;ratioP2
33268;SDS011;19640;50.944;5.260;2023-05-02T00:02:00;63.15;;;29.08;;
33268;SDS011;19640;50.944;5.260;2023-05-02T00:04:26;72.93;;;29.45;;
33268;SDS011;19640;50.944;5.260;2023-05-02T00:06:52;62.70;;;28.10;;
33268;SDS011;19640;50.944;5.260;2023-05-02T00:09:18;62.42;;;28.63;;
33268;SDS011;19640;50.944;5.260;2023-05-02T00:11:44;62.25;;;27.77;;
33268;SDS011;19640;50.944;5.260;2023-05-02T00:14:10;60.80;;;27.58;;
33268;SDS011;19640;50.944;5.260;2023-05-02T00:16:36;55.88;;;26.25;;
33268;SDS011;19640;50.944;5.260;2023-05-02T00:19:01;54.17;;;26.67;;
33268;SDS011;19640;50.944;5.260;2023-05-02T00:21:27;55.78;;;27.02;;
33268;SDS011;19640;50.944;5.260;2023-05-02T00:23:54;54.78;;;26.83;;
33268;SDS011;19640;50.944;5.260;2023-05-02T00:26:22;62.03;;;27.08;;
33268;SDS011;19640;50.944;5.260;2023-05-02T00:28:48;58.35;;;26.25;;
33268;SDS011;19640;50.944;5.260;2023-05-02T00:31:14;58.60;;;26.08;;
33268;SDS011;19640;50.944;5.260;2023-05-02T00:33:40;56.45;;;26.50;;
33268;SDS011;19640;50.944;5.260;2023-05-02T00:36:16;45.30;;;23.52;;
33268;SDS011;19640;50.944;5.260;2023-05-02T00:38:43;51.50;;;25.27;;
33268;SDS011;19640;50.944;5.260;2023-05-02T00:41:09;63.65;;;25.80;;
33268;SDS011;19640;50.944;5.260;2023-05-02T00:43:35;54.58;;;25.00;;
33268;SDS011;19640;50.944;5.260;2023-05-02T00:46:03;58.28;;;26.20;;
33268;SDS011;19640;50.944;5.260;2023-05-02T00:48:30;56.17;;;25.00;;
33268;SDS011;19640;50.944;5.260;2023-05-02T00:50:56;56.25;;;24.80;;
33268;SDS011;19640;50.944;5.260;2023-05-02T00:53:23;52.60;;;25.85;;
33268;SDS011;19640;50.944;5.260;2023-05-02T00:55:48;52.30;;;25.45;;
33268;SDS011;19640;50.944;5.260;2023-05-02T00:58:15;56.67;;;26.88;;
33268;SDS011;19640;50.944;5.260;2023-05-02T01:00:53;59.85;;;26.50;;
33268;SDS011;19640;50.944;5.260;2023-05-02T01:11:53;56.35;;;26.08;;
33268;SDS011;19640;50.944;5.260;2023-05-02T01:14:28;55.28;;;26.50;;
33268;SDS011;19640;50.944;5.260;2023-05-02T01:16:57;60.30;;;26.92;;
33268;SDS011;19640;50.944;5.260;2023-05-02T01:19:33;58.00;;;25.95;;
33268;SDS011;19640;50.944;5.260;2023-05-02T01:22:02;56.13;;;28.08;;
33268;SDS011;19640;50.944;5.260;2023-05-02T01:24:34;56.15;;;25.95;;
33268;SDS011;19640;50.944;5.260;2023-05-02T01:27:27;55.65;;;26.05;;
33268;SDS011;19640;50.944;5.260;2023-05-02T01:30:11;63.35;;;28.27;;
33268;SDS011;19640;50.944;5.260;2023-05-02T01:32:40;59.85;;;28.10;;
33268;SDS011;19640;50.944;5.260;2023-05-02T01:35:09;58.33;;;26.70;;
33268;SDS011;19640;50.944;5.260;2023-05-02T01:37:38;55.17;;;27.52;;
33268;SDS011;19640;50.944;5.260;2023-05-02T01:40:05;57.97;;;27.60;;
33268;SDS011;19640;50.944;5.260;2023-05-02T01:42:32;55.20;;;27.00;;
33268;SDS011;19640;50.944;5.260;2023-05-02T01:45:02;53.03;;;26.65;;
33268;SDS011;19640;50.944;5.260;2023-05-02T01:47:29;68.65;;;29.88;;
33268;SDS011;19640;50.944;5.260;2023-05-02T01:49:59;57.35;;;28.33;;
33268;SDS011;19640;50.944;5.260;2023-05-02T01:52:27;54.80;;;27.63;;
33268;SDS011;19640;50.944;5.260;2023-05-02T01:54:54;54.80;;;26.83;;
33268;SDS011;19640;50.944;5.260;2023-05-02T01:57:22;55.70;;;25.70;;
33268;SDS011;19640;50.944;5.260;2023-05-02T01:59:48;55.88;;;26.80;;
33268;SDS011;19640;50.944;5.260;2023-05-02T02:02:14;59.53;;;26.73;;
33268;SDS011;19640;50.944;5.260;2023-05-02T02:04:41;55.55;;;26.95;;
33268;SDS011;19640;50.944;5.260;2023-05-02T02:07:10;57.80;;;26.95;;
33268;SDS011;19640;50.944;5.260;2023-05-02T02:09:38;65.97;;;28.00;;
33268;SDS011;19640;50.944;5.260;2023-05-02T02:12:05;69.05;;;28.52;;
33268;SDS011;19640;50.944;5.260;2023-05-02T02:15:20;60.90;;;27.35;;
33268;SDS011;19640;50.944;5.260;2023-05-02T02:17:59;62.72;;;28.95;;
33268;SDS011;19640;50.944;5.260;2023-05-02T02:20:36;63.88;;;28.70;;
33268;SDS011;19640;50.944;5.260;2023-05-02T02:23:05;62.35;;;27.42;;
33268;SDS011;19640;50.944;5.260;2023-05-02T02:25:32;65.65;;;28.90;;
33268;SDS011;19640;50.944;5.260;2023-05-02T02:28:00;62.28;;;29.40;;
33268;SDS011;19640;50.944;5.260;2023-05-02T02:30:25;74.28;;;31.90;;
33268;SDS011;19640;50.944;5.260;2023-05-02T02:32:51;65.32;;;29.73;;
33268;SDS011;19640;50.944;5.260;2023-05-02T02:35:17;64.70;;;29.52;;
33268;SDS011;19640;50.944;5.260;2023-05-02T02:37:47;68.10;;;29.77;;
33268;SDS011;19640;50.944;5.260;2023-05-02T02:40:28;64.13;;;28.95;;
33268;SDS011;19640;50.944;5.260;2023-05-02T02:48:35;56.50;;;26.52;;
33268;SDS011;19640;50.944;5.260;2023-05-02T02:51:13;60.13;;;27.60;;
33268;SDS011;19640;50.944;5.260;2023-05-02T02:54:05;65.93;;;30.73;;
33268;SDS011;19640;50.944;5.260;2023-05-02T02:56:39;66.68;;;29.08;;
33268;SDS011;19640;50.944;5.260;2023-05-02T03:01:34;72.07;;;29.30;;
33268;SDS011;19640;50.944;5.260;2023-05-02T03:04:04;60.22;;;28.48;;
33268;SDS011;19640;50.944;5.260;2023-05-02T03:06:33;66.50;;;28.63;;
33268;SDS011;19640;50.944;5.260;2023-05-02T03:08:58;66.65;;;28.90;;
33268;SDS011;19640;50.944;5.260;2023-05-02T03:11:24;66.68;;;30.05;;
33268;SDS011;19640;50.944;5.260;2023-05-02T03:13:50;71.82;;;29.98;;
33268;SDS011;19640;50.944;5.260;2023-05-02T03:19:01;68.70;;;29.58;;
33268;SDS011;19640;50.944;5.260;2023-05-02T03:21:28;77.35;;;31.70;;
33268;SDS011;19640;50.944;5.260;2023-05-02T03:23:57;71.15;;;30.58;;
33268;SDS011;19640;50.944;5.260;2023-05-02T03:26:24;76.55;;;30.42;;
33268;SDS011;19640;50.944;5.260;2023-05-02T03:28:50;82.20;;;32.95;;
33268;SDS011;19640;50.944;5.260;2023-05-02T03:31:15;75.07;;;29.27;;
33268;SDS011;19640;50.944;5.260;2023-05-02T03:33:42;77.25;;;31.25;;
33268;SDS011;19640;50.944;5.260;2023-05-02T03:36:07;81.13;;;30.63;;
33268;SDS011;19640;50.944;5.260;2023-05-02T03:38:33;82.05;;;31.10;;
33268;SDS011;19640;50.944;5.260;2023-05-02T03:40:59;82.13;;;31.75;;
33268;SDS011;19640;50.944;5.260;2023-05-02T03:43:25;80.65;;;32.58;;
33268;SDS011;19640;50.944;5.260;2023-05-02T03:45:50;77.65;;;31.40;;
33268;SDS011;19640;50.944;5.260;2023-05-02T03:48:16;81.05;;;31.48;;
33268;SDS011;19640;50.944;5.260;2023-05-02T03:50:42;84.90;;;32.28;;
33268;SDS011;19640;50.944;5.260;2023-05-02T03:53:07;83.43;;;30.98;;
33268;SDS011;19640;50.944;5.260;2023-05-02T03:55:43;77.22;;;30.20;;
33268;SDS011;19640;50.944;5.260;2023-05-02T03:58:09;84.18;;;31.88;;
33268;SDS011;19640;50.944;5.260;2023-05-02T04:00:35;78.68;;;30.95;;
33268;SDS011;19640;50.944;5.260;2023-05-02T04:03:02;71.40;;;30.95;;
33268;SDS011;19640;50.944;5.260;2023-05-02T04:05:28;74.15;;;31.02;;
33268;SDS011;19640;50.944;5.260;2023-05-02T04:07:57;77.30;;;30.60;;
33268;SDS011;19640;50.944;5.260;2023-05-02T04:10:23;76.97;;;32.00;;
33268;SDS011;19640;50.944;5.260;2023-05-02T04:12:48;76.78;;;30.27;;
33268;SDS011;19640;50.944;5.260;2023-05-02T04:15:14;70.95;;;29.92;;
33268;SDS011;19640;50.944;5.260;2023-05-02T04:17:40;72.95;;;31.83;;
33268;SDS011;19640;50.944;5.260;2023-05-02T04:20:06;66.68;;;30.38;;
33268;SDS011;19640;50.944;5.260;2023-05-02T04:22:32;49.65;;;24.55;;
33268;SDS011;19640;50.944;5.260;2023-05-02T04:24:58;45.83;;;24.38;;
33268;SDS011;19640;50.944;5.260;2023-05-02T04:27:24;44.78;;;23.30;;
33268;SDS011;19640;50.944;5.260;2023-05-02T04:29:50;40.17;;;21.58;;
33268;SDS011;19640;50.944;5.260;2023-05-02T04:32:17;33.75;;;19.25;;
33268;SDS011;19640;50.944;5.260;2023-05-02T04:34:43;40.97;;;21.33;;
33268;SDS011;19640;50.944;5.260;2023-05-02T04:37:08;32.53;;;20.08;;
33268;SDS011;19640;50.944;5.260;2023-05-02T04:39:34;35.60;;;19.95;;
33268;SDS011;19640;50.944;5.260;2023-05-02T04:42:00;32.35;;;18.80;;
33268;SDS011;19640;50.944;5.260;2023-05-02T04:44:26;28.90;;;18.92;;
33268;SDS011;19640;50.944;5.260;2023-05-02T04:46:52;29.05;;;19.38;;
33268;SDS011;19640;50.944;5.260;2023-05-02T04:49:18;30.95;;;19.17;;
33268;SDS011;19640;50.944;5.260;2023-05-02T04:51:43;31.40;;;19.55;;
33268;SDS011;19640;50.944;5.260;2023-05-02T04:54:10;43.72;;;19.27;;
33268;SDS011;19640;50.944;5.260;2023-05-02T04:56:36;32.75;;;19.33;;
33268;SDS011;19640;50.944;5.260;2023-05-02T04:59:02;31.35;;;18.55;;
33268;SDS011;19640;50.944;5.260;2023-05-02T05:01:28;24.20;;;18.65;;
33268;SDS011;19640;50.944;5.260;2023-05-02T05:03:54;25.55;;;17.90;;
33268;SDS011;19640;50.944;5.260;2023-05-02T05:06:20;28.80;;;17.77;;
33268;SDS011;19640;50.944;5.260;2023-05-02T05:08:46;27.05;;;18.05;;
33268;SDS011;19640;50.944;5.260;2023-05-02T05:11:12;27.48;;;17.92;;
33268;SDS011;19640;50.944;5.260;2023-05-02T05:13:39;27.83;;;19.45;;
33268;SDS011;19640;50.944;5.260;2023-05-02T05:16:06;30.90;;;18.40;;
33268;SDS011;19640;50.944;5.260;2023-05-02T05:18:32;25.73;;;18.00;;
33268;SDS011;19640;50.944;5.260;2023-05-02T05:21:04;30.10;;;19.10;;
33268;SDS011;19640;50.944;5.260;2023-05-02T05:23:31;31.05;;;18.55;;
33268;SDS011;19640;50.944;5.260;2023-05-02T05:25:57;29.60;;;17.98;;
33268;SDS011;19640;50.944;5.260;2023-05-02T05:28:23;31.55;;;19.27;;
33268;SDS011;19640;50.944;5.260;2023-05-02T05:30:48;28.98;;;17.50;;
33268;SDS011;19640;50.944;5.260;2023-05-02T05:33:15;28.77;;;17.77;;
33268;SDS011;19640;50.944;5.260;2023-05-02T05:35:41;29.80;;;19.65;;
33268;SDS011;19640;50.944;5.260;2023-05-02T05:38:07;29.33;;;19.48;;
33268;SDS011;19640;50.944;5.260;2023-05-02T05:40:32;31.33;;;19.75;;
33268;SDS011;19640;50.944;5.260;2023-05-02T05:42:58;30.90;;;17.98;;
33268;SDS011;19640;50.944;5.260;2023-05-02T05:45:24;23.08;;;16.27;;
33268;SDS011;19640;50.944;5.260;2023-05-02T05:47:49;28.95;;;17.15;;
33268;SDS011;19640;50.944;5.260;2023-05-02T05:50:15;31.27;;;17.73;;
33268;SDS011;19640;50.944;5.260;2023-05-02T05:52:41;18.85;;;15.55;;
33268;SDS011;19640;50.944;5.260;2023-05-02T05:55:07;27.85;;;14.27;;
33268;SDS011;19640;50.944;5.260;2023-05-02T05:57:33;18.45;;;13.90;;
33268;SDS011;19640;50.944;5.260;2023-05-02T05:59:59;21.02;;;13.93;;
33268;SDS011;19640;50.944;5.260;2023-05-02T06:02:24;15.00;;;11.23;;
33268;SDS011;19640;50.944;5.260;2023-05-02T06:04:50;15.60;;;10.95;;
33268;SDS011;19640;50.944;5.260;2023-05-02T06:07:16;17.17;;;11.60;;
33268;SDS011;19640;50.944;5.260;2023-05-02T06:09:42;12.63;;;10.25;;
33268;SDS011;19640;50.944;5.260;2023-05-02T06:12:08;13.68;;;9.93;;
33268;SDS011;19640;50.944;5.260;2023-05-02T06:14:34;12.23;;;7.57;;
33268;SDS011;19640;50.944;5.260;2023-05-02T06:16:59;17.25;;;8.10;;
33268;SDS011;19640;50.944;5.260;2023-05-02T06:19:25;10.95;;;6.90;;
33268;SDS011;19640;50.944;5.260;2023-05-02T06:21:51;11.13;;;6.80;;
33268;SDS011;19640;50.944;5.260;2023-05-02T06:24:16;9.68;;;7.00;;
33268;SDS011;19640;50.944;5.260;2023-05-02T06:26:42;7.78;;;5.90;;
33268;SDS011;19640;50.944;5.260;2023-05-02T06:29:08;7.68;;;6.20;;
33268;SDS011;19640;50.944;5.260;2023-05-02T06:31:33;10.88;;;6.85;;
33268;SDS011;19640;50.944;5.260;2023-05-02T06:33:59;9.60;;;6.20;;
33268;SDS011;19640;50.944;5.260;2023-05-02T06:36:25;9.65;;;7.55;;
33268;SDS011;19640;50.944;5.260;2023-05-02T06:38:51;9.50;;;8.15;;
33268;SDS011;19640;50.944;5.260;2023-05-02T06:41:17;11.60;;;9.50;;
33268;SDS011;19640;50.944;5.260;2023-05-02T06:43:44;10.52;;;8.52;;
33268;SDS011;19640;50.944;5.260;2023-05-02T06:46:10;8.55;;;6.90;;
33268;SDS011;19640;50.944;5.260;2023-05-02T06:48:36;9.43;;;7.03;;
33268;SDS011;19640;50.944;5.260;2023-05-02T06:51:02;12.57;;;5.57;;
33268;SDS011;19640;50.944;5.260;2023-05-02T06:53:28;6.53;;;4.97;;
33268;SDS011;19640;50.944;5.260;2023-05-02T06:55:54;6.13;;;4.43;;
33268;SDS011;19640;50.944;5.260;2023-05-02T06:58:20;5.22;;;3.88;;
33268;SDS011;19640;50.944;5.260;2023-05-02T07:00:46;3.80;;;2.75;;
33268;SDS011;19640;50.944;5.260;2023-05-02T07:03:12;3.67;;;2.55;;
33268;SDS011;19640;50.944;5.260;2023-05-02T07:05:38;7.05;;;2.72;;
33268;SDS011;19640;50.944;5.260;2023-05-02T07:08:04;4.78;;;2.83;;
33268;SDS011;19640;50.944;5.260;2023-05-02T07:10:30;4.43;;;2.65;;
33268;SDS011;19640;50.944;5.260;2023-05-02T07:12:56;5.25;;;1.90;;
33268;SDS011;19640;50.944;5.260;2023-05-02T07:15:22;2.67;;;1.83;;
33268;SDS011;19640;50.944;5.260;2023-05-02T07:17:47;3.38;;;1.67;;
33268;SDS011;19640;50.944;5.260;2023-05-02T07:20:13;7.00;;;2.13;;
33268;SDS011;19640;50.944;5.260;2023-05-02T07:22:40;3.58;;;2.13;;
33268;SDS011;19640;50.944;5.260;2023-05-02T07:25:06;4.18;;;2.08;;
33268;SDS011;19640;50.944;5.260;2023-05-02T07:27:32;4.55;;;2.42;;
33268;SDS011;19640;50.944;5.260;2023-05-02T07:29:58;3.88;;;2.67;;
33268;SDS011;19640;50.944;5.260;2023-05-02T07:32:23;5.72;;;2.38;;
33268;SDS011;19640;50.944;5.260;2023-05-02T07:34:50;3.17;;;1.90;;
33268;SDS011;19640;50.944;5.260;2023-05-02T07:37:18;4.75;;;2.22;;
33268;SDS011;19640;50.944;5.260;2023-05-02T07:39:45;4.18;;;2.10;;
33268;SDS011;19640;50.944;5.260;2023-05-02T07:42:10;5.00;;;2.30;;
33268;SDS011;19640;50.944;5.260;2023-05-02T07:44:36;3.75;;;2.50;;
33268;SDS011;19640;50.944;5.260;2023-05-02T07:47:02;6.65;;;2.30;;
33268;SDS011;19640;50.944;5.260;2023-05-02T07:49:27;8.00;;;2.92;;
33268;SDS011;19640;50.944;5.260;2023-05-02T07:51:53;7.90;;;2.83;;
33268;SDS011;19640;50.944;5.260;2023-05-02T07:54:20;5.43;;;2.80;;
33268;SDS011;19640;50.944;5.260;2023-05-02T07:56:46;3.78;;;2.28;;
33268;SDS011;19640;50.944;5.260;2023-05-02T07:59:13;5.85;;;2.88;;
33268;SDS011;19640;50.944;5.260;2023-05-02T08:01:39;5.90;;;2.40;;
33268;SDS011;19640;50.944;5.260;2023-05-02T08:04:05;4.45;;;2.25;;
33268;SDS011;19640;50.944;5.260;2023-05-02T08:06:31;7.45;;;2.17;;
33268;SDS011;19640;50.944;5.260;2023-05-02T08:08:57;6.75;;;2.58;;
33268;SDS011;19640;50.944;5.260;2023-05-02T08:11:23;4.07;;;2.10;;
33268;SDS011;19640;50.944;5.260;2023-05-02T08:13:52;4.45;;;2.22;;
33268;SDS011;19640;50.944;5.260;2023-05-02T08:16:18;3.50;;;1.77;;
33268;SDS011;19640;50.944;5.260;2023-05-02T08:18:44;3.50;;;1.67;;
33268;SDS011;19640;50.944;5.260;2023-05-02T08:21:10;3.75;;;1.75;;
33268;SDS011;19640;50.944;5.260;2023-05-02T08:23:36;4.97;;;1.67;;
33268;SDS011;19640;50.944;5.260;2023-05-02T08:26:02;3.83;;;1.30;;
33268;SDS011;19640;50.944;5.260;2023-05-02T08:28:28;3.10;;;1.15;;
33268;SDS011;19640;50.944;5.260;2023-05-02T08:30:54;3.55;;;1.48;;
33268;SDS011;19640;50.944;5.260;2023-05-02T08:33:21;4.93;;;1.20;;
33268;SDS011;19640;50.944;5.260;2023-05-02T08:35:47;5.18;;;1.38;;
33268;SDS011;19640;50.944;5.260;2023-05-02T08:38:13;5.13;;;1.70;;
33268;SDS011;19640;50.944;5.260;2023-05-02T08:40:39;3.45;;;1.20;;
33268;SDS011;19640;50.944;5.260;2023-05-02T08:43:05;2.35;;;1.13;;
33268;SDS011;19640;50.944;5.260;2023-05-02T08:45:34;4.75;;;1.40;;
33268;SDS011;19640;50.944;5.260;2023-05-02T08:48:07;5.82;;;1.70;;
33268;SDS011;19640;50.944;5.260;2023-05-02T08:50:41;5.22;;;1.98;;
33268;SDS011;19640;50.944;5.260;2023-05-02T08:53:10;4.90;;;1.20;;
33268;SDS011;19640;50.944;5.260;2023-05-02T08:55:38;4.38;;;1.30;;
33268;SDS011;19640;50.944;5.260;2023-05-02T08:58:05;2.95;;;1.33;;
33268;SDS011;19640;50.944;5.260;2023-05-02T09:00:32;2.33;;;1.20;;
33268;SDS011;19640;50.944;5.260;2023-05-02T09:03:05;3.28;;;1.10;;
33268;SDS011;19640;50.944;5.260;2023-05-02T09:05:41;5.88;;;1.52;;
33268;SDS011;19640;50.944;5.260;2023-05-02T09:08:07;4.07;;;1.30;;
33268;SDS011;19640;50.944;5.260;2023-05-02T09:10:33;3.58;;;1.30;;
33268;SDS011;19640;50.944;5.260;2023-05-02T09:16:05;6.22;;;1.38;;
33268;SDS011;19640;50.944;5.260;2023-05-02T09:18:34;6.28;;;1.70;;
33268;SDS011;19640;50.944;5.260;2023-05-02T09:21:05;2.83;;;1.50;;
33268;SDS011;19640;50.944;5.260;2023-05-02T09:26:19;4.10;;;1.20;;
33268;SDS011;19640;50.944;5.260;2023-05-02T09:28:53;2.80;;;1.05;;
33268;SDS011;19640;50.944;5.260;2023-05-02T09:33:55;3.10;;;1.10;;
33268;SDS011;19640;50.944;5.260;2023-05-02T09:36:21;6.75;;;1.50;;
33268;SDS011;19640;50.944;5.260;2023-05-02T09:38:48;3.58;;;1.30;;
33268;SDS011;19640;50.944;5.260;2023-05-02T09:41:17;3.38;;;1.58;;
33268;SDS011;19640;50.944;5.260;2023-05-02T09:43:53;2.15;;;1.10;;
33268;SDS011;19640;50.944;5.260;2023-05-02T09:46:21;7.35;;;1.73;;
33268;SDS011;19640;50.944;5.260;2023-05-02T09:48:56;2.63;;;1.15;;
33268;SDS011;19640;50.944;5.260;2023-05-02T09:51:23;2.95;;;1.25;;
33268;SDS011;19640;50.944;5.260;2023-05-02T09:53:50;2.95;;;1.10;;
33268;SDS011;19640;50.944;5.260;2023-05-02T09:56:16;4.47;;;1.20;;
33268;SDS011;19640;50.944;5.260;2023-05-02T09:58:43;4.07;;;1.35;;
33268;SDS011;19640;50.944;5.260;2023-05-02T10:01:15;2.47;;;0.93;;
33268;SDS011;19640;50.944;5.260;2023-05-02T10:03:45;1.90;;;0.90;;
33268;SDS011;19640;50.944;5.260;2023-05-02T10:06:11;5.25;;;1.65;;
33268;SDS011;19640;50.944;5.260;2023-05-02T10:08:38;6.78;;;1.42;;
33268;SDS011;19640;50.944;5.260;2023-05-02T10:11:06;4.80;;;1.33;;
33268;SDS011;19640;50.944;5.260;2023-05-02T10:13:33;5.35;;;1.42;;
33268;SDS011;19640;50.944;5.260;2023-05-02T10:16:03;3.90;;;1.50;;
33268;SDS011;19640;50.944;5.260;2023-05-02T10:21:07;3.33;;;1.52;;
33268;SDS011;19640;50.944;5.260;2023-05-02T10:23:35;3.03;;;1.30;;
33268;SDS011;19640;50.944;5.260;2023-05-02T10:26:02;5.15;;;1.75;;
33268;SDS011;19640;50.944;5.260;2023-05-02T10:28:28;4.97;;;1.25;;
33268;SDS011;19640;50.944;5.260;2023-05-02T10:30:54;3.83;;;1.48;;
33268;SDS011;19640;50.944;5.260;2023-05-02T10:33:22;9.75;;;1.70;;
33268;SDS011;19640;50.944;5.260;2023-05-02T10:35:48;3.53;;;1.23;;
33268;SDS011;19640;50.944;5.260;2023-05-02T10:38:20;5.60;;;1.25;;
33268;SDS011;19640;50.944;5.260;2023-05-02T10:40:48;6.45;;;2.05;;
33268;SDS011;19640;50.944;5.260;2023-05-02T10:43:20;6.07;;;1.55;;
33268;SDS011;19640;50.944;5.260;2023-05-02T10:45:48;3.10;;;1.40;;
33268;SDS011;19640;50.944;5.260;2023-05-02T10:48:18;2.83;;;1.15;;
33268;SDS011;19640;50.944;5.260;2023-05-02T10:50:52;4.80;;;1.65;;
33268;SDS011;19640;50.944;5.260;2023-05-02T10:58:48;8.05;;;1.70;;
33268;SDS011;19640;50.944;5.260;2023-05-02T11:06:19;3.03;;;1.38;;
33268;SDS011;19640;50.944;5.260;2023-05-02T11:08:45;3.40;;;1.60;;
33268;SDS011;19640;50.944;5.260;2023-05-02T11:14:11;4.82;;;1.92;;
33268;SDS011;19640;50.944;5.260;2023-05-02T11:19:26;7.68;;;2.05;;
33268;SDS011;19640;50.944;5.260;2023-05-02T11:21:53;3.30;;;1.60;;
33268;SDS011;19640;50.944;5.260;2023-05-02T11:24:51;5.60;;;1.70;;
33268;SDS011;19640;50.944;5.260;2023-05-02T11:32:25;5.50;;;1.80;;
33268;SDS011;19640;50.944;5.260;2023-05-02T11:35:19;5.13;;;2.47;;
33268;SDS011;19640;50.944;5.260;2023-05-02T11:37:56;5.10;;;2.17;;
33268;SDS011;19640;50.944;5.260;2023-05-02T11:40:23;7.53;;;2.20;;
33268;SDS011;19640;50.944;5.260;2023-05-02T11:42:51;5.82;;;1.83;;
33268;SDS011;19640;50.944;5.260;2023-05-02T11:45:17;4.97;;;1.85;;
33268;SDS011;19640;50.944;5.260;2023-05-02T11:47:44;2.67;;;1.77;;
33268;SDS011;19640;50.944;5.260;2023-05-02T11:50:12;4.18;;;2.13;;
33268;SDS011;19640;50.944;5.260;2023-05-02T11:52:39;9.20;;;2.00;;
33268;SDS011;19640;50.944;5.260;2023-05-02T11:55:06;6.05;;;2.78;;
33268;SDS011;19640;50.944;5.260;2023-05-02T11:57:33;9.63;;;3.00;;
33268;SDS011;19640;50.944;5.260;2023-05-02T11:59:59;9.48;;;2.47;;
33268;SDS011;19640;50.944;5.260;2023-05-02T12:02:38;4.75;;;2.25;;
33268;SDS011;19640;50.944;5.260;2023-05-02T12:05:05;6.00;;;2.42;;
33268;SDS011;19640;50.944;5.260;2023-05-02T12:10:06;6.35;;;2.05;;
33268;SDS011;19640;50.944;5.260;2023-05-02T12:12:33;6.30;;;1.70;;
33268;SDS011;19640;50.944;5.260;2023-05-02T12:15:03;5.82;;;2.13;;
33268;SDS011;19640;50.944;5.260;2023-05-02T12:17:35;14.93;;;2.22;;
33268;SDS011;19640;50.944;5.260;2023-05-02T12:20:03;5.88;;;2.28;;
33268;SDS011;19640;50.944;5.260;2023-05-02T12:22:30;4.72;;;2.00;;
33268;SDS011;19640;50.944;5.260;2023-05-02T12:24:56;5.07;;;2.00;;
33268;SDS011;19640;50.944;5.260;2023-05-02T12:27:23;3.85;;;1.70;;
33268;SDS011;19640;50.944;5.260;2023-05-02T12:29:49;6.18;;;1.70;;
33268;SDS011;19640;50.944;5.260;2023-05-02T12:32:25;8.30;;;1.92;;
33268;SDS011;19640;50.944;5.260;2023-05-02T12:34:53;5.22;;;1.92;;
33268;SDS011;19640;50.944;5.260;2023-05-02T12:37:22;5.40;;;2.00;;
33268;SDS011;19640;50.944;5.260;2023-05-02T12:39:49;4.45;;;1.90;;
33268;SDS011;19640;50.944;5.260;2023-05-02T12:42:15;5.10;;;1.92;;
33268;SDS011;19640;50.944;5.260;2023-05-02T12:44:43;7.30;;;2.00;;
33268;SDS011;19640;50.944;5.260;2023-05-02T12:47:10;3.88;;;1.77;;
33268;SDS011;19640;50.944;5.260;2023-05-02T12:50:13;5.47;;;2.28;;
33268;SDS011;19640;50.944;5.260;2023-05-02T12:52:48;2.63;;;1.70;;
33268;SDS011;19640;50.944;5.260;2023-05-02T12:55:19;4.40;;;1.45;;
33268;SDS011;19640;50.944;5.260;2023-05-02T12:57:49;3.40;;;1.38;;
33268;SDS011;19640;50.944;5.260;2023-05-02T13:00:23;2.88;;;1.30;;
33268;SDS011;19640;50.944;5.260;2023-05-02T13:02:49;4.40;;;1.80;;
33268;SDS011;19640;50.944;5.260;2023-05-02T13:05:15;5.95;;;1.80;;
33268;SDS011;19640;50.944;5.260;2023-05-02T13:07:42;9.30;;;2.03;;
33268;SDS011;19640;50.944;5.260;2023-05-02T13:10:08;5.75;;;1.70;;
33268;SDS011;19640;50.944;5.260;2023-05-02T13:12:35;3.33;;;1.55;;
33268;SDS011;19640;50.944;5.260;2023-05-02T13:15:05;3.92;;;2.00;;
33268;SDS011;19640;50.944;5.260;2023-05-02T13:17:32;5.25;;;1.80;;
33268;SDS011;19640;50.944;5.260;2023-05-02T13:19:58;3.72;;;1.63;;
33268;SDS011;19640;50.944;5.260;2023-05-02T13:22:24;4.15;;;1.77;;
33268;SDS011;19640;50.944;5.260;2023-05-02T13:24:50;9.90;;;2.88;;
33268;SDS011;19640;50.944;5.260;2023-05-02T13:27:17;3.42;;;1.58;;
33268;SDS011;19640;50.944;5.260;2023-05-02T13:29:43;5.55;;;1.90;;
33268;SDS011;19640;50.944;5.260;2023-05-02T13:32:09;6.97;;;1.73;;
33268;SDS011;19640;50.944;5.260;2023-05-02T13:34:34;3.08;;;1.67;;
33268;SDS011;19640;50.944;5.260;2023-05-02T13:37:01;3.40;;;1.67;;
33268;SDS011;19640;50.944;5.260;2023-05-02T13:39:26;3.58;;;1.20;;
33268;SDS011;19640;50.944;5.260;2023-05-02T13:41:52;2.95;;;1.63;;
33268;SDS011;19640;50.944;5.260;2023-05-02T13:44:18;2.47;;;1.77;;
33268;SDS011;19640;50.944;5.260;2023-05-02T13:46:43;1.73;;;1.35;;
33268;SDS011;19640;50.944;5.260;2023-05-02T13:49:09;2.83;;;1.42;;
33268;SDS011;19640;50.944;5.260;2023-05-02T13:51:35;6.32;;;2.25;;
33268;SDS011;19640;50.944;5.260;2023-05-02T13:54:00;2.45;;;1.60;;
33268;SDS011;19640;50.944;5.260;2023-05-02T13:56:27;4.15;;;2.10;;
33268;SDS011;19640;50.944;5.260;2023-05-02T13:58:52;4.97;;;1.90;;
33268;SDS011;19640;50.944;5.260;2023-05-02T14:01:18;6.57;;;1.40;;
33268;SDS011;19640;50.944;5.260;2023-05-02T14:03:44;4.32;;;1.50;;
33268;SDS011;19640;50.944;5.260;2023-05-02T14:06:09;5.15;;;1.45;;
33268;SDS011;19640;50.944;5.260;2023-05-02T14:08:35;5.13;;;1.83;;
33268;SDS011;19640;50.944;5.260;2023-05-02T14:11:01;3.45;;;1.88;;
33268;SDS011;19640;50.944;5.260;2023-05-02T14:13:27;3.60;;;1.73;;
33268;SDS011;19640;50.944;5.260;2023-05-02T14:15:52;5.28;;;1.58;;
33268;SDS011;19640;50.944;5.260;2023-05-02T14:18:19;7.22;;;2.00;;
33268;SDS011;19640;50.944;5.260;2023-05-02T14:20:45;3.60;;;1.40;;
33268;SDS011;19640;50.944;5.260;2023-05-02T14:23:11;3.53;;;1.42;;
33268;SDS011;19640;50.944;5.260;2023-05-02T14:25:37;5.43;;;1.50;;
33268;SDS011;19640;50.944;5.260;2023-05-02T14:28:03;3.17;;;1.40;;
33268;SDS011;19640;50.944;5.260;2023-05-02T14:30:29;5.97;;;2.20;;
33268;SDS011;19640;50.944;5.260;2023-05-02T14:32:55;5.07;;;1.80;;
33268;SDS011;19640;50.944;5.260;2023-05-02T14:35:21;3.80;;;1.40;;
33268;SDS011;19640;50.944;5.260;2023-05-02T14:37:47;3.45;;;1.42;;
33268;SDS011;19640;50.944;5.260;2023-05-02T14:40:13;3.42;;;1.75;;
33268;SDS011;19640;50.944;5.260;2023-05-02T14:42:39;5.40;;;2.28;;
33268;SDS011;19640;50.944;5.260;2023-05-02T14:45:05;3.25;;;2.05;;
33268;SDS011;19640;50.944;5.260;2023-05-02T14:47:32;6.78;;;2.10;;
33268;SDS011;19640;50.944;5.260;2023-05-02T14:49:58;6.82;;;2.38;;
33268;SDS011;19640;50.944;5.260;2023-05-02T14:52:25;4.07;;;1.88;;
33268;SDS011;19640;50.944;5.260;2023-05-02T14:54:51;4.05;;;1.60;;
33268;SDS011;19640;50.944;5.260;2023-05-02T14:57:17;5.00;;;2.17;;
33268;SDS011;19640;50.944;5.260;2023-05-02T14:59:43;3.75;;;1.75;;
33268;SDS011;19640;50.944;5.260;2023-05-02T15:02:09;6.95;;;2.40;;
33268;SDS011;19640;50.944;5.260;2023-05-02T15:04:35;4.43;;;1.85;;
33268;SDS011;19640;50.944;5.260;2023-05-02T15:07:01;4.13;;;1.70;;
33268;SDS011;19640;50.944;5.260;2023-05-02T15:09:27;3.22;;;1.60;;
33268;SDS011;19640;50.944;5.260;2023-05-02T15:11:53;6.07;;;1.80;;
33268;SDS011;19640;50.944;5.260;2023-05-02T15:14:19;4.10;;;1.80;;
33268;SDS011;19640;50.944;5.260;2023-05-02T15:16:45;5.57;;;1.85;;
33268;SDS011;19640;50.944;5.260;2023-05-02T15:19:11;4.20;;;1.92;;
33268;SDS011;19640;50.944;5.260;2023-05-02T15:21:37;7.03;;;2.10;;
33268;SDS011;19640;50.944;5.260;2023-05-02T15:24:03;6.45;;;2.08;;
33268;SDS011;19640;50.944;5.260;2023-05-02T15:26:29;3.78;;;1.77;;
33268;SDS011;19640;50.944;5.260;2023-05-02T15:28:56;3.30;;;1.88;;
33268;SDS011;19640;50.944;5.260;2023-05-02T15:31:21;4.78;;;1.88;;
33268;SDS011;19640;50.944;5.260;2023-05-02T15:33:48;4.22;;;1.90;;